Time;durP1;ratioP1;P1;durP2;ratioP2;P2;SDS_P1;SDS_P2;PMS_P1;PMS_P2;Temp;Humidity;BMP_temperature;BMP_pressure;BME280_temperature;BME280_humidity;BME280_pressure;Samples;Min_cycle;Max_cycle;Signal;HPM_P1;HPM_P2
2022/11/05 00:09:34;;;;;;;15.53;10.30;;;10.30;96.50;;;;;;5093735;28;20435;-72
2022/11/05 00:17:33;;;;;;;13.97;10.30;;;10.20;96.70;;;;;;5093625;28;20550;-73
2022/11/05 00:20:01;;;;;;;11.27;10.10;;;10.20;96.80;;;;;;5093478;28;20463;-72
2022/11/05 00:25:20;;;;;;;12.40;9.67;;;10.10;96.80;;;;;;5097470;28;20409;-73
2022/11/05 00:27:49;;;;;;;11.87;10.67;;;10.00;96.80;;;;;;5096898;28;20919;-72
2022/11/05 00:30:18;;;;;;;11.27;9.90;;;10.00;97.00;;;;;;5096949;28;20456;-73
2022/11/05 00:32:46;;;;;;;11.10;9.50;;;9.90;97.80;;;;;;5097175;28;20469;-73
2022/11/05 00:35:15;;;;;;;14.03;10.30;;;9.90;97.90;;;;;;5096549;28;20471;-73
2022/11/05 00:37:41;;;;;;;10.80;9.70;;;9.80;97.80;;;;;;5096688;28;20489;-72
2022/11/05 00:40:10;;;;;;;13.23;10.40;;;9.80;97.90;;;;;;5096703;28;20449;-73
2022/11/05 00:45:21;;;;;;;12.97;11.50;;;9.80;98.20;;;;;;5096891;28;20425;-72
2022/11/05 00:50:32;;;;;;;12.10;10.93;;;9.70;98.30;;;;;;5066090;28;20429;-72
2022/11/05 00:53:00;;;;;;;13.43;10.93;;;9.70;98.40;;;;;;5097261;28;20470;-72
2022/11/05 00:55:33;;;;;;;12.60;10.43;;;9.60;98.30;;;;;;5096219;28;20972;-72
2022/11/05 00:58:00;;;;;;;14.87;9.97;;;9.60;98.40;;;;;;5096638;28;20472;-72
2022/11/05 01:00:29;;;;;;;14.20;10.90;;;9.70;98.40;;;;;;5096467;28;20450;-72
2022/11/05 01:02:58;;;;;;;22.13;10.60;;;9.70;98.40;;;;;;5096089;28;20470;-73
2022/11/05 01:05:25;;;;;;;10.03;9.03;;;9.70;98.30;;;;;;5096301;28;20472;-73
2022/11/05 01:07:54;;;;;;;10.00;8.30;;;9.70;98.10;;;;;;5096347;28;20438;-72
2022/11/05 01:10:21;;;;;;;11.00;9.90;;;9.80;98.00;;;;;;5096255;28;20450;-72
2022/11/05 01:12:47;;;;;;;14.40;9.20;;;9.80;97.90;;;;;;5096178;28;20461;-72
2022/11/05 01:15:14;;;;;;;15.43;10.53;;;9.80;97.70;;;;;;5096023;28;20443;-72
2022/11/05 01:17:41;;;;;;;10.90;9.83;;;9.80;97.60;;;;;;5095768;28;20489;-72
2022/11/05 01:20:09;;;;;;;12.97;8.93;;;9.90;97.50;;;;;;5095714;28;20953;-72
2022/11/05 01:22:35;;;;;;;11.80;10.43;;;9.90;97.30;;;;;;5095727;28;20470;-72
2022/11/05 01:25:06;;;;;;;11.67;10.47;;;9.90;97.20;;;;;;5095417;28;20958;-73
2022/11/05 01:27:32;;;;;;;13.30;10.57;;;9.90;97.00;;;;;;5095847;28;20429;-72
2022/11/05 01:29:59;;;;;;;12.10;10.07;;;9.80;97.00;;;;;;5095880;28;20447;-72
2022/11/05 01:32:26;;;;;;;12.87;9.73;;;9.90;97.20;;;;;;5095834;28;20474;-72
2022/11/05 01:34:52;;;;;;;14.20;10.20;;;9.90;97.20;;;;;;5095251;28;20991;-73
2022/11/05 01:37:19;;;;;;;9.80;8.47;;;9.90;97.10;;;;;;5095368;28;20491;-73
2022/11/05 01:39:47;;;;;;;9.30;8.47;;;10.00;96.40;;;;;;5095794;28;20443;-72
2022/11/05 01:42:20;;;;;;;12.90;10.30;;;10.00;96.20;;;;;;5095713;28;20459;-72
2022/11/05 01:45:00;;;;;;;11.03;9.93;;;10.00;96.20;;;;;;5095733;28;20435;-72
2022/11/05 01:47:42;;;;;;;10.40;9.00;;;10.10;96.30;;;;;;5095562;28;20434;-72
2022/11/05 01:50:29;;;;;;;10.60;9.60;;;10.10;96.30;;;;;;5095572;28;20431;-72
2022/11/05 01:53:02;;;;;;;10.43;9.40;;;10.20;96.40;;;;;;5095471;28;20466;-72
2022/11/05 01:55:33;;;;;;;11.83;9.53;;;10.20;96.40;;;;;;5095353;28;20429;-72
2022/11/05 01:58:04;;;;;;;10.77;9.60;;;10.20;96.50;;;;;;5095260;28;20466;-72
2022/11/05 02:00:31;;;;;;;10.93;9.83;;;10.20;96.40;;;;;;5095439;28;20800;-72
2022/11/05 02:02:58;;;;;;;10.90;9.70;;;10.20;96.40;;;;;;5095061;28;20463;-72
2022/11/05 02:05:25;;;;;;;15.07;10.00;;;10.20;96.50;;;;;;5095190;28;20443;-73
2022/11/05 02:07:53;;;;;;;11.43;10.33;;;10.20;96.60;;;;;;5095227;28;20451;-72
2022/11/05 02:10:22;;;;;;;12.20;10.10;;;10.20;96.60;;;;;;5095282;28;20454;-73
2022/11/05 02:12:48;;;;;;;10.20;9.17;;;10.10;96.50;;;;;;5095369;28;20469;-73
2022/11/05 02:15:19;;;;;;;10.13;8.50;;;10.10;96.50;;;;;;5095039;28;20815;-72
2022/11/05 02:17:57;;;;;;;9.73;8.83;;;10.10;96.40;;;;;;5095059;28;20503;-72
2022/11/05 02:20:32;;;;;;;11.43;9.10;;;10.10;96.40;;;;;;5095228;28;20817;-72
2022/11/05 02:23:26;;;;;;;13.53;10.17;;;10.20;96.50;;;;;;5095137;28;20520;-72
2022/11/05 02:26:18;;;;;;;10.10;8.20;;;10.20;96.50;;;;;;5079101;28;20446;-72
2022/11/05 02:29:11;;;;;;;10.13;8.90;;;10.20;96.50;;;;;;5094938;28;20441;-72
2022/11/05 02:31:47;;;;;;;9.27;8.37;;;10.20;96.40;;;;;;5094961;28;20441;-72
2022/11/05 02:34:24;;;;;;;9.73;8.20;;;10.20;96.30;;;;;;5094818;28;20438;-73
2022/11/05 02:37:00;;;;;;;9.93;7.13;;;10.20;96.20;;;;;;5094927;28;20884;-72
2022/11/05 02:39:36;;;;;;;9.37;6.53;;;10.10;95.70;;;;;;5095176;28;20434;-72
2022/11/05 02:42:11;;;;;;;8.67;6.43;;;10.10;95.60;;;;;;5094669;28;20819;-73
2022/11/05 02:44:44;;;;;;;9.87;6.60;;;10.00;95.60;;;;;;5094440;28;20437;-72
2022/11/05 02:47:23;;;;;;;10.87;6.77;;;9.90;96.30;;;;;;5094736;28;20427;-72
2022/11/05 02:49:57;;;;;;;6.90;6.20;;;9.90;96.30;;;;;;5094512;28;20432;-72
2022/11/05 02:52:32;;;;;;;7.53;6.13;;;9.80;96.50;;;;;;5094715;28;20466;-73
2022/11/05 02:55:05;;;;;;;7.93;6.20;;;9.70;96.70;;;;;;5094395;28;20425;-73
2022/11/05 02:57:34;;;;;;;8.60;6.63;;;9.70;96.80;;;;;;5094063;28;20964;-73
2022/11/05 03:00:04;;;;;;;7.80;6.70;;;9.70;96.90;;;;;;5094274;28;20474;-72
2022/11/05 03:02:32;;;;;;;16.87;5.87;;;9.60;96.90;;;;;;5094176;28;20566;-73
2022/11/05 03:05:00;;;;;;;7.43;6.30;;;9.70;97.00;;;;;;5094563;28;20457;-73
2022/11/05 03:07:34;;;;;;;8.07;6.57;;;9.70;97.00;;;;;;5094035;28;20447;-71
2022/11/05 03:10:14;;;;;;;15.47;8.00;;;9.70;96.90;;;;;;5095291;28;20433;-72
2022/11/05 03:12:51;;;;;;;9.10;7.20;;;9.70;96.80;;;;;;5094724;28;20467;-73
2022/11/05 03:15:33;;;;;;;10.17;7.60;;;9.70;96.80;;;;;;5094085;28;20431;-72
2022/11/05 03:18:09;;;;;;;8.30;7.60;;;9.60;96.80;;;;;;5093978;28;20468;-73
2022/11/05 03:20:39;;;;;;;9.87;8.33;;;9.60;97.00;;;;;;5093990;28;20772;-72
2022/11/05 03:23:12;;;;;;;9.70;7.10;;;9.50;97.10;;;;;;5094346;28;20469;-72
2022/11/05 03:25:43;;;;;;;10.07;7.33;;;9.50;97.20;;;;;;5093821;28;20440;-73
2022/11/05 03:28:11;;;;;;;10.30;7.80;;;9.50;97.40;;;;;;5093836;28;20534;-73
2022/11/05 03:30:39;;;;;;;16.67;8.70;;;9.50;97.70;;;;;;5093866;28;20481;-72
2022/11/05 03:33:13;;;;;;;11.73;8.33;;;9.50;97.40;;;;;;5093841;28;20466;-73
2022/11/05 03:35:43;;;;;;;11.37;7.57;;;9.50;97.30;;;;;;5093622;28;20422;-73
2022/11/05 03:38:13;;;;;;;14.87;8.53;;;9.50;97.20;;;;;;5093706;28;20472;-72
2022/11/05 03:40:42;;;;;;;10.67;8.77;;;9.50;97.20;;;;;;5093843;28;20442;-72
2022/11/05 03:43:09;;;;;;;10.63;8.97;;;9.50;97.20;;;;;;5093310;28;21004;-72
2022/11/05 03:45:40;;;;;;;12.40;10.47;;;9.50;97.20;;;;;;5093590;28;20438;-73
2022/11/05 03:48:10;;;;;;;11.83;9.70;;;9.50;97.20;;;;;;5093662;28;20452;-72
2022/11/05 03:50:41;;;;;;;12.43;10.43;;;9.50;97.20;;;;;;5093640;28;20454;-72
2022/11/05 03:53:15;;;;;;;12.40;9.80;;;9.50;97.20;;;;;;5093346;28;20832;-72
2022/11/05 03:55:51;;;;;;;13.70;10.40;;;9.50;97.20;;;;;;5094002;28;20421;-72
2022/11/05 03:58:19;;;;;;;17.13;12.40;;;9.50;97.10;;;;;;5096054;28;20495;-72
2022/11/05 04:00:47;;;;;;;12.33;10.13;;;9.50;97.00;;;;;;5097681;28;20438;-72
2022/11/05 04:03:15;;;;;;;13.20;11.70;;;9.50;96.90;;;;;;5097494;28;20489;-72
2022/11/05 04:05:42;;;;;;;14.90;11.80;;;9.40;97.00;;;;;;5097385;28;20953;-72
2022/11/05 04:13:38;;;;;;;14.77;12.27;;;9.40;97.30;;;;;;5097582;28;20960;-72
2022/11/05 04:18:50;;;;;;;14.17;12.67;;;9.30;97.40;;;;;;5097165;28;20457;-72
2022/11/05 04:24:10;;;;;;;17.67;14.13;;;9.30;97.60;;;;;;5097199;28;20963;-72
2022/11/05 04:26:39;;;;;;;17.20;12.40;;;9.30;98.00;;;;;;5097296;28;20430;-72
2022/11/05 04:31:50;;;;;;;18.47;14.73;;;9.40;97.80;;;;;;5097094;28;20763;-72
2022/11/05 04:34:20;;;;;;;17.00;14.27;;;9.40;97.90;;;;;;5097013;28;20450;-72
2022/11/05 04:36:48;;;;;;;21.10;14.50;;;9.40;98.20;;;;;;5096796;28;20469;-72
2022/11/05 04:39:15;;;;;;;17.03;14.00;;;9.30;97.80;;;;;;5096831;28;20488;-72
2022/11/05 04:41:42;;;;;;;18.73;14.50;;;9.40;97.90;;;;;;5096580;28;20799;-72
2022/11/05 04:44:09;;;;;;;17.87;14.43;;;9.40;97.80;;;;;;5096635;28;20447;-72
2022/11/05 04:46:35;;;;;;;19.60;12.37;;;9.40;97.80;;;;;;5096719;28;20478;-72
2022/11/05 04:49:02;;;;;;;16.43;13.17;;;9.40;97.70;;;;;;5096797;28;20448;-71
2022/11/05 04:51:30;;;;;;;19.20;13.80;;;9.40;97.60;;;;;;5096476;28;20448;-72
2022/11/05 04:53:57;;;;;;;20.63;14.63;;;9.40;97.60;;;;;;5096544;28;20469;-72
2022/11/05 04:56:25;;;;;;;18.17;14.40;;;9.40;97.40;;;;;;5096415;28;20437;-72
2022/11/05 04:58:52;;;;;;;19.97;14.07;;;9.40;97.30;;;;;;5095887;28;21012;-72
2022/11/05 05:01:21;;;;;;;23.17;13.77;;;9.30;97.20;;;;;;5096561;28;20449;-73
2022/11/05 05:03:49;;;;;;;16.30;13.83;;;9.30;97.20;;;;;;5096425;28;20465;-73
2022/11/05 05:06:16;;;;;;;23.57;14.50;;;9.30;97.10;;;;;;5096232;28;20469;-73
2022/11/05 05:08:44;;;;;;;19.50;13.40;;;9.20;97.20;;;;;;5095911;28;20464;-72
2022/11/05 05:11:12;;;;;;;16.67;12.57;;;9.20;97.30;;;;;;5096331;28;20449;-72
2022/11/05 05:13:39;;;;;;;20.63;14.63;;;9.20;97.20;;;;;;5096358;28;20475;-72
2022/11/05 05:16:07;;;;;;;17.77;13.80;;;9.20;97.20;;;;;;5096034;28;20437;-73
2022/11/05 05:18:34;;;;;;;19.10;14.30;;;9.20;97.20;;;;;;5096174;28;20504;-72
2022/11/05 05:23:48;;;;;;;24.73;13.90;;;9.20;97.30;;;;;;5095747;28;20510;-72
2022/11/05 05:26:15;;;;;;;16.87;12.83;;;9.20;97.30;;;;;;5095929;28;20477;-72
2022/11/05 05:28:42;;;;;;;21.37;14.17;;;9.20;97.30;;;;;;5095743;28;20430;-73
2022/11/05 05:31:09;;;;;;;22.03;14.50;;;9.20;97.30;;;;;;5095824;28;20451;-72
2022/11/05 05:33:36;;;;;;;22.03;13.57;;;9.20;97.30;;;;;;5095560;28;21017;-72
2022/11/05 05:36:03;;;;;;;20.40;13.33;;;9.20;97.30;;;;;;5095683;28;20466;-72
2022/11/05 05:38:29;;;;;;;14.47;12.27;;;9.20;97.20;;;;;;5095429;28;20975;-72
2022/11/05 05:41:00;;;;;;;17.07;12.97;;;9.20;97.20;;;;;;5095650;28;20444;-72
2022/11/05 05:43:30;;;;;;;14.80;11.60;;;9.20;97.10;;;;;;5095673;28;20469;-72
2022/11/05 05:45:57;;;;;;;16.27;12.27;;;9.20;97.10;;;;;;5095154;28;20931;-72
2022/11/05 05:48:24;;;;;;;15.70;11.97;;;9.10;97.10;;;;;;5095037;28;20442;-72
2022/11/05 05:50:50;;;;;;;15.37;12.60;;;9.10;97.20;;;;;;5095490;28;20453;-72
2022/11/05 05:53:17;;;;;;;14.00;11.33;;;9.10;97.30;;;;;;5095267;28;20473;-73
2022/11/05 05:55:44;;;;;;;15.23;10.93;;;9.10;97.20;;;;;;5095492;28;20441;-73
2022/11/05 05:58:12;;;;;;;17.00;11.73;;;9.10;97.30;;;;;;5095398;28;20843;-71
2022/11/05 06:00:38;;;;;;;16.43;10.97;;;9.10;97.30;;;;;;5094984;28;20916;-72
2022/11/05 06:03:06;;;;;;;16.00;11.10;;;9.10;97.40;;;;;;5095289;28;20472;-72
2022/11/05 06:05:32;;;;;;;17.53;12.27;;;9.00;97.40;;;;;;5095242;28;20502;-73
2022/11/05 06:07:59;;;;;;;12.60;10.07;;;9.10;97.50;;;;;;5095397;28;20795;-73
2022/11/05 06:10:26;;;;;;;12.83;11.00;;;9.10;97.40;;;;;;5095127;28;20461;-72
2022/11/05 06:12:52;;;;;;;13.03;10.43;;;9.10;97.40;;;;;;5094789;28;20498;-72
2022/11/05 06:15:21;;;;;;;14.40;10.80;;;9.10;97.30;;;;;;5095948;28;20446;-73
2022/11/05 06:17:47;;;;;;;12.77;10.07;;;9.10;97.40;;;;;;5096144;28;20958;-72
2022/11/05 06:20:14;;;;;;;15.17;10.57;;;9.10;97.30;;;;;;5094367;28;20455;-72
2022/11/05 06:22:41;;;;;;;14.97;10.37;;;9.10;97.30;;;;;;5094833;28;20847;-72
2022/11/05 06:25:09;;;;;;;13.37;10.60;;;9.10;97.30;;;;;;5094759;28;20472;-73
2022/11/05 06:27:38;;;;;;;13.80;9.97;;;9.10;97.30;;;;;;5094840;28;20449;-72
2022/11/05 06:30:06;;;;;;;10.90;8.80;;;9.10;97.30;;;;;;5094913;28;20480;-72
2022/11/05 06:32:34;;;;;;;13.30;10.10;;;9.10;97.40;;;;;;5094773;28;20469;-72
2022/11/05 06:35:00;;;;;;;12.10;9.50;;;9.10;97.30;;;;;;5094698;28;20456;-72
2022/11/05 06:37:27;;;;;;;11.83;9.20;;;9.10;97.10;;;;;;5094103;28;20457;-72
2022/11/05 06:39:55;;;;;;;13.63;9.60;;;9.10;96.80;;;;;;5094178;28;21002;-72
2022/11/05 06:42:23;;;;;;;15.17;9.60;;;9.00;96.50;;;;;;5095868;28;20469;-72
2022/11/05 06:44:50;;;;;;;11.47;9.60;;;9.00;96.40;;;;;;5095872;28;20448;-72
2022/11/05 06:47:17;;;;;;;13.13;9.77;;;9.00;96.40;;;;;;5094996;28;20535;-71
2022/11/05 06:49:46;;;;;;;14.37;8.70;;;9.00;96.30;;;;;;5094444;28;20819;-71
2022/11/05 06:52:14;;;;;;;13.83;9.13;;;8.90;96.30;;;;;;5094411;28;20476;-72
2022/11/05 06:54:41;;;;;;;14.50;10.00;;;8.90;96.60;;;;;;5093963;28;20948;-72
2022/11/05 06:57:09;;;;;;;12.90;8.87;;;8.90;96.90;;;;;;5094008;28;20947;-72
2022/11/05 06:59:36;;;;;;;13.00;9.23;;;8.90;97.00;;;;;;5093889;28;20479;-72
2022/11/05 07:02:03;;;;;;;12.70;9.43;;;9.00;97.10;;;;;;5094320;28;20483;-72
2022/11/05 07:04:30;;;;;;;14.53;9.93;;;9.00;97.20;;;;;;5094246;28;20516;-73
2022/11/05 07:07:00;;;;;;;15.17;9.50;;;9.00;97.30;;;;;;5093864;28;20951;-72
2022/11/05 07:09:27;;;;;;;18.83;10.40;;;9.00;97.50;;;;;;5094074;28;20477;-73
2022/11/05 07:11:53;;;;;;;16.63;10.07;;;9.10;97.50;;;;;;5095018;28;20462;-72
2022/11/05 07:14:20;;;;;;;16.30;10.57;;;9.10;97.50;;;;;;5094281;28;20790;-72
2022/11/05 07:16:47;;;;;;;16.07;9.87;;;9.00;97.50;;;;;;5094282;28;20441;-72
2022/11/05 07:19:14;;;;;;;18.63;11.60;;;9.00;97.50;;;;;;5093605;28;20993;-71
2022/11/05 07:21:41;;;;;;;15.13;8.67;;;9.10;97.50;;;;;;5094242;28;20446;-72
2022/11/05 07:24:09;;;;;;;14.40;11.23;;;9.00;97.40;;;;;;5093934;28;20451;-72
2022/11/05 07:26:36;;;;;;;15.80;11.87;;;9.00;97.40;;;;;;5093920;28;20452;-72
2022/11/05 07:29:02;;;;;;;17.87;9.60;;;9.10;97.50;;;;;;5094136;28;20463;-72
2022/11/05 07:31:29;;;;;;;14.43;9.17;;;9.10;97.50;;;;;;5093690;28;20440;-73
2022/11/05 07:33:57;;;;;;;12.73;9.30;;;9.10;97.50;;;;;;5093869;28;20478;-72
2022/11/05 07:36:24;;;;;;;16.67;9.90;;;9.10;97.60;;;;;;5093366;28;20476;-72
2022/11/05 07:38:51;;;;;;;15.27;9.83;;;9.20;97.60;;;;;;5093969;28;20508;-72
2022/11/05 07:41:19;;;;;;;11.47;10.10;;;9.20;97.60;;;;;;5093758;28;20455;-73
2022/11/05 07:43:46;;;;;;;18.37;10.40;;;9.20;97.60;;;;;;5093874;28;20478;-73
2022/11/05 07:46:13;;;;;;;15.50;10.17;;;9.30;97.60;;;;;;5093756;28;20956;-72
2022/11/05 07:48:39;;;;;;;14.20;10.77;;;9.30;97.60;;;;;;5076449;28;20816;-73
2022/11/05 07:51:06;;;;;;;14.00;9.67;;;9.40;97.50;;;;;;5094295;28;20457;-72
2022/11/05 07:53:33;;;;;;;15.37;11.00;;;9.40;97.50;;;;;;5093385;28;20983;-72
2022/11/05 07:56:00;;;;;;;15.43;10.23;;;9.40;97.60;;;;;;5094017;28;20455;-72
2022/11/05 07:58:28;;;;;;;17.13;9.53;;;9.50;97.60;;;;;;5093855;28;20438;-72
2022/11/05 08:00:56;;;;;;;12.20;9.97;;;9.50;97.50;;;;;;5093906;28;20820;-73
2022/11/05 08:03:23;;;;;;;18.30;10.23;;;9.50;97.50;;;;;;5093736;28;20810;-72
2022/11/05 08:05:49;;;;;;;13.70;10.60;;;9.50;97.50;;;;;;5093745;28;20447;-72
2022/11/05 08:08:17;;;;;;;16.63;10.53;;;9.60;97.40;;;;;;5093920;28;20456;-73
2022/11/05 08:10:44;;;;;;;19.80;9.40;;;9.60;97.40;;;;;;5093873;28;20438;-72
2022/11/05 08:13:12;;;;;;;22.37;10.30;;;9.60;97.70;;;;;;5093708;28;20468;-73
2022/11/05 08:15:41;;;;;;;18.73;9.87;;;9.60;97.60;;;;;;5093747;28;20450;-73
2022/11/05 08:18:10;;;;;;;16.57;10.00;;;9.60;97.50;;;;;;5093834;28;20453;-72
2022/11/05 08:20:38;;;;;;;15.13;8.57;;;9.70;97.30;;;;;;5093634;28;20989;-73
2022/11/05 08:23:05;;;;;;;14.30;8.90;;;9.70;97.30;;;;;;5093350;28;20977;-73
2022/11/05 08:25:32;;;;;;;16.30;9.80;;;9.70;97.30;;;;;;5095477;28;20955;-73
2022/11/05 08:28:01;;;;;;;11.70;9.60;;;9.70;97.40;;;;;;5093714;28;20473;-73
2022/11/05 08:30:28;;;;;;;17.50;9.80;;;9.70;97.30;;;;;;5093736;28;20446;-74
2022/11/05 08:32:58;;;;;;;15.13;10.00;;;9.80;97.30;;;;;;5093725;28;20832;-74
2022/11/05 08:35:26;;;;;;;21.67;10.80;;;9.80;97.40;;;;;;5092975;28;20445;-74
2022/11/05 08:37:57;;;;;;;16.67;10.30;;;9.80;97.40;;;;;;5093243;28;20836;-73
2022/11/05 08:40:24;;;;;;;17.33;10.37;;;9.90;97.50;;;;;;5094069;28;20508;-73
2022/11/05 08:42:51;;;;;;;20.03;9.60;;;9.90;97.40;;;;;;5093980;28;20520;-74
2022/11/05 08:45:18;;;;;;;18.60;10.97;;;9.90;97.30;;;;;;5097055;28;20465;-72
2022/11/05 08:47:45;;;;;;;12.77;9.63;;;10.00;96.80;;;;;;5096785;28;20449;-74
2022/11/05 08:50:13;;;;;;;15.90;10.80;;;10.00;96.80;;;;;;5097270;28;20442;-72
2022/11/05 08:52:42;;;;;;;13.60;10.40;;;10.00;96.80;;;;;;5096844;28;20471;-73
2022/11/05 08:55:09;;;;;;;16.20;10.80;;;10.00;96.80;;;;;;5096587;28;21029;-73
2022/11/05 08:57:36;;;;;;;15.07;10.43;;;10.10;96.80;;;;;;5097779;28;20459;-72
2022/11/05 09:00:05;;;;;;;14.47;9.87;;;10.20;96.40;;;;;;5096658;28;20502;-73
2022/11/05 09:02:31;;;;;;;16.57;9.37;;;10.20;96.40;;;;;;5096018;28;20474;-73
2022/11/05 09:04:58;;;;;;;14.00;9.60;;;10.20;96.30;;;;;;5096525;28;20454;-72
2022/11/05 09:07:26;;;;;;;19.70;9.47;;;10.30;96.30;;;;;;5096825;28;20455;-71
2022/11/05 09:09:53;;;;;;;16.20;9.67;;;10.30;96.20;;;;;;5096307;28;20427;-71
2022/11/05 09:12:19;;;;;;;11.67;9.20;;;10.30;96.10;;;;;;5095950;28;20469;-72
2022/11/05 09:14:46;;;;;;;12.90;9.70;;;10.40;96.10;;;;;;5096116;28;20444;-72
2022/11/05 09:17:17;;;;;;;13.30;9.43;;;10.50;95.90;;;;;;5095922;28;20949;-71
2022/11/05 09:19:44;;;;;;;13.77;9.40;;;10.60;96.00;;;;;;5095902;28;20864;-71
2022/11/05 09:22:11;;;;;;;14.13;8.80;;;10.60;95.90;;;;;;5095847;28;20977;-71
2022/11/05 09:24:39;;;;;;;18.07;9.97;;;10.70;95.70;;;;;;5096479;28;20881;-71
2022/11/05 09:27:09;;;;;;;14.53;9.60;;;10.80;95.80;;;;;;5096454;28;20447;-72
2022/11/05 09:29:35;;;;;;;12.00;8.57;;;10.90;95.70;;;;;;5096927;28;20490;-71
2022/11/05 09:32:02;;;;;;;15.70;8.90;;;10.90;95.30;;;;;;5095687;28;20475;-72
2022/11/05 09:34:29;;;;;;;11.00;8.20;;;11.00;95.20;;;;;;5095914;28;20452;-72
2022/11/05 09:36:57;;;;;;;14.50;9.17;;;11.10;94.80;;;;;;5095837;28;20839;-71
2022/11/05 09:39:24;;;;;;;13.27;8.63;;;11.10;94.50;;;;;;5095870;28;20487;-71
2022/11/05 09:41:53;;;;;;;12.60;8.50;;;11.20;94.60;;;;;;5095476;28;20817;-72
2022/11/05 09:44:23;;;;;;;10.67;7.70;;;11.30;94.60;;;;;;5095961;28;20459;-72
2022/11/05 09:46:54;;;;;;;11.80;8.10;;;11.40;94.30;;;;;;5095629;28;20430;-71
2022/11/05 09:49:26;;;;;;;11.10;9.27;;;11.40;94.10;;;;;;5095447;28;20460;-71
2022/11/05 09:51:54;;;;;;;13.23;8.07;;;11.50;94.20;;;;;;5095547;28;20434;-71
2022/11/05 09:54:23;;;;;;;26.50;10.60;;;11.60;94.40;;;;;;5095657;28;20446;-72
2022/11/05 09:56:53;;;;;;;11.93;8.20;;;11.70;93.70;;;;;;5095550;28;20454;-72
2022/11/05 09:59:24;;;;;;;12.67;7.70;;;11.70;93.60;;;;;;5095381;28;20489;-72
2022/11/05 10:02:02;;;;;;;13.53;8.40;;;11.80;93.70;;;;;;5095081;28;20918;-72
2022/11/05 10:04:32;;;;;;;10.00;7.60;;;11.90;94.10;;;;;;5095208;28;20423;-72
2022/11/05 10:07:01;;;;;;;9.30;6.97;;;12.00;93.60;;;;;;5095710;28;20453;-71
2022/11/05 10:09:35;;;;;;;9.27;6.80;;;12.00;93.20;;;;;;5095240;28;20442;-72
2022/11/05 10:12:10;;;;;;;8.93;6.27;;;12.00;92.80;;;;;;5095412;28;20468;-72
2022/11/05 10:14:43;;;;;;;7.30;6.40;;;12.00;92.80;;;;;;5095449;28;20435;-73
2022/11/05 10:17:14;;;;;;;10.30;7.07;;;12.10;92.90;;;;;;5095344;28;20506;-72
2022/11/05 10:19:44;;;;;;;8.10;5.70;;;12.30;92.40;;;;;;5095044;28;20495;-72
2022/11/05 10:22:15;;;;;;;11.37;6.80;;;12.40;92.40;;;;;;5095092;28;20471;-72
2022/11/05 10:24:45;;;;;;;7.63;6.07;;;12.60;92.50;;;;;;5094860;28;20440;-72
2022/11/05 10:27:18;;;;;;;7.60;5.30;;;12.80;91.40;;;;;;5094978;28;20444;-73
2022/11/05 10:29:45;;;;;;;6.67;5.40;;;13.00;91.40;;;;;;5094811;28;20424;-72
2022/11/05 10:32:27;;;;;;;6.60;5.10;;;13.20;90.60;;;;;;5094766;28;20551;-72
2022/11/05 10:34:56;;;;;;;7.93;5.70;;;13.30;90.00;;;;;;5094851;28;20443;-72
2022/11/05 10:37:24;;;;;;;7.40;5.27;;;13.40;88.70;;;;;;5094373;28;20542;-73
2022/11/05 10:39:51;;;;;;;7.70;5.80;;;13.50;88.30;;;;;;5094841;28;20476;-72
2022/11/05 10:42:42;;;;;;;5.90;5.20;;;13.50;87.00;;;;;;5094275;28;20894;-73
2022/11/05 10:45:20;;;;;;;11.03;6.10;;;13.40;87.10;;;;;;5094748;28;20522;-73
2022/11/05 10:48:03;;;;;;;9.07;5.17;;;13.50;87.50;;;;;;5094667;28;20427;-73
2022/11/05 10:50:30;;;;;;;8.27;5.23;;;13.60;86.90;;;;;;5094331;28;20451;-73
2022/11/05 10:52:59;;;;;;;5.67;5.17;;;13.80;86.50;;;;;;5094308;28;20460;-73
2022/11/05 10:55:29;;;;;;;6.00;5.30;;;14.10;85.50;;;;;;5094470;28;20507;-73
2022/11/05 10:58:08;;;;;;;4.63;3.93;;;14.50;84.40;;;;;;5094787;28;20461;-73
2022/11/05 11:00:35;;;;;;;5.23;4.13;;;15.20;82.00;;;;;;5094320;28;20495;-73
2022/11/05 11:03:04;;;;;;;3.77;3.47;;;15.80;76.90;;;;;;5094130;28;20464;-73
2022/11/05 11:05:34;;;;;;;5.20;4.10;;;16.20;74.90;;;;;;5093525;28;20480;-73
2022/11/05 11:08:06;;;;;;;7.67;4.63;;;16.60;71.40;;;;;;5094047;28;20502;-72
2022/11/05 11:10:40;;;;;;;4.60;3.83;;;16.80;68.70;;;;;;5094541;28;20425;-75
2022/11/05 11:13:19;;;;;;;5.93;4.07;;;17.10;67.60;;;;;;5094121;28;20475;-74
2022/11/05 11:15:49;;;;;;;6.33;3.93;;;17.40;66.40;;;;;;5094275;28;20464;-74
2022/11/05 11:18:28;;;;;;;4.43;3.23;;;17.70;62.20;;;;;;5094138;28;20626;-74
2022/11/05 11:21:05;;;;;;;8.97;4.37;;;17.70;60.60;;;;;;5097230;28;20504;-73
2022/11/05 11:23:37;;;;;;;10.10;4.40;;;17.50;61.50;;;;;;5097089;28;20464;-73
2022/11/05 11:26:04;;;;;;;5.87;4.20;;;17.30;63.80;;;;;;5096154;28;20437;-75
2022/11/05 11:28:35;;;;;;;5.17;4.63;;;17.20;63.70;;;;;;5093650;28;20455;-73
2022/11/05 11:31:07;;;;;;;10.10;4.80;;;17.00;63.90;;;;;;5096832;28;20796;-74
2022/11/05 11:33:36;;;;;;;7.50;6.03;;;16.70;64.20;;;;;;5101379;28;20483;-70
2022/11/05 11:36:03;;;;;;;5.73;4.77;;;16.50;65.10;;;;;;5114987;28;20448;-69
2022/11/05 11:38:32;;;;;;;11.43;6.20;;;16.10;65.80;;;;;;5115130;28;20412;-69
2022/11/05 11:41:03;;;;;;;6.83;5.27;;;15.80;69.30;;;;;;5114803;28;20479;-70
2022/11/05 11:43:34;;;;;;;7.20;5.30;;;15.70;70.90;;;;;;5115172;28;20478;-69
2022/11/05 11:46:03;;;;;;;8.30;5.10;;;15.50;71.20;;;;;;5115145;28;20435;-70
2022/11/05 11:48:33;;;;;;;7.63;5.00;;;15.50;72.10;;;;;;5114843;28;20425;-69
2022/11/05 11:51:16;;;;;;;8.07;4.50;;;15.40;71.70;;;;;;5114975;28;20440;-69
2022/11/05 11:53:44;;;;;;;4.97;4.40;;;15.30;71.30;;;;;;5107796;28;20468;-70
2022/11/05 11:56:16;;;;;;;4.70;4.17;;;15.10;71.30;;;;;;5113629;28;20448;-70
2022/11/05 11:58:47;;;;;;;11.47;4.63;;;15.00;73.10;;;;;;5113457;28;20425;-70
2022/11/05 12:01:43;;;;;;;10.70;4.20;;;14.90;73.20;;;;;;5113733;28;20471;-70
2022/11/05 12:04:25;;;;;;;7.67;4.90;;;14.90;73.90;;;;;;5109407;28;20424;-71
2022/11/05 12:07:03;;;;;;;11.47;5.57;;;14.80;73.90;;;;;;5096143;28;20920;-73
2022/11/05 12:09:40;;;;;;;8.97;5.03;;;14.60;74.00;;;;;;5093927;28;20430;-72
2022/11/05 12:12:11;;;;;;;8.00;4.80;;;14.60;74.90;;;;;;5098367;28;20478;-72
2022/11/05 12:14:51;;;;;;;5.10;4.60;;;14.60;75.30;;;;;;5113690;28;20431;-70
2022/11/05 12:17:28;;;;;;;5.77;4.53;;;14.70;75.60;;;;;;5114407;28;20428;-69
2022/11/05 12:20:31;;;;;;;10.87;4.80;;;14.70;74.60;;;;;;5116651;28;20463;-70
2022/11/05 12:23:20;;;;;;;7.53;4.87;;;14.90;75.50;;;;;;5117972;28;20466;-69
2022/11/05 12:25:55;;;;;;;5.80;3.83;;;15.10;74.50;;;;;;5117568;28;20498;-70
2022/11/05 12:28:44;;;;;;;6.97;4.20;;;15.10;73.90;;;;;;5118005;28;20427;-69
2022/11/05 12:31:22;;;;;;;5.23;3.60;;;15.20;74.40;;;;;;5105317;28;20435;-70
2022/11/05 12:34:02;;;;;;;5.30;3.40;;;15.30;72.00;;;;;;5118538;28;20448;-68
2022/11/05 12:36:40;;;;;;;5.37;3.60;;;15.40;70.60;;;;;;5122230;28;20456;-68
2022/11/05 12:39:22;;;;;;;6.27;3.70;;;15.60;69.40;;;;;;5118427;28;20428;-69
2022/11/05 12:41:55;;;;;;;8.40;3.60;;;15.60;68.70;;;;;;5117294;28;20464;-69
2022/11/05 12:44:46;;;;;;;5.20;3.40;;;15.70;69.50;;;;;;5118260;28;20435;-69
2022/11/05 12:47:43;;;;;;;7.20;3.63;;;15.80;68.20;;;;;;5116801;28;20425;-70
2022/11/05 12:50:16;;;;;;;8.37;5.00;;;15.80;68.80;;;;;;5117741;28;20421;-72
2022/11/05 12:53:01;;;;;;;8.63;4.20;;;15.70;68.00;;;;;;5114026;28;20463;-71
2022/11/05 12:55:34;;;;;;;6.80;4.80;;;15.50;66.90;;;;;;5111772;28;20431;-70
2022/11/05 12:58:07;;;;;;;8.03;4.80;;;15.50;68.80;;;;;;5114087;28;20432;-69
2022/11/05 13:00:36;;;;;;;6.97;4.63;;;15.40;69.70;;;;;;5112958;28;20470;-70
2022/11/05 13:03:21;;;;;;;8.70;4.40;;;15.40;70.50;;;;;;5110202;28;20493;-70
2022/11/05 13:05:52;;;;;;;5.90;4.00;;;15.50;70.50;;;;;;5110943;28;20910;-72
2022/11/05 13:08:23;;;;;;;9.43;4.27;;;15.50;69.10;;;;;;5112849;28;20493;-70
2022/11/05 13:10:54;;;;;;;10.13;4.93;;;15.40;68.30;;;;;;5115552;28;20428;-69
2022/11/05 13:13:26;;;;;;;5.23;3.40;;;15.40;66.80;;;;;;5115267;28;20545;-69
2022/11/05 13:15:57;;;;;;;9.60;4.77;;;15.40;67.10;;;;;;5115696;28;20451;-69
2022/11/05 13:18:31;;;;;;;5.30;4.07;;;15.40;66.80;;;;;;5117066;28;20448;-69
2022/11/05 13:21:01;;;;;;;4.87;3.67;;;15.40;66.90;;;;;;5117239;28;20466;-70
2022/11/05 13:23:35;;;;;;;5.87;3.93;;;15.40;67.30;;;;;;5116981;28;20468;-70
2022/11/05 13:26:10;;;;;;;6.70;3.50;;;15.40;67.20;;;;;;5117113;28;20448;-70
2022/11/05 13:28:45;;;;;;;5.80;3.63;;;15.40;66.90;;;;;;5115754;28;20438;-69
2022/11/05 13:31:17;;;;;;;4.70;4.03;;;15.40;66.10;;;;;;5116344;28;20408;-69
2022/11/05 13:33:47;;;;;;;7.60;4.20;;;15.40;66.50;;;;;;5116771;28;20464;-69
2022/11/05 13:39:11;;;;;;;6.20;3.70;;;15.60;67.00;;;;;;5116561;28;20472;-69